Blanford, Indiana
Current Conditions -  °F | °C
As of 9:35 PM on Wednesday 26 Nov 2014 (Local Time) from KPRG Reporting Station
Overcast Overcast  
Wind Chill: -1°   Ceiling: 11000
Heat Index: -1°   Visibility: 10mi
Dew Point: -3°   Wind: 3mph
Humidity: 88%   Direction: 20°NNE
Pressure: 30.1"   Gusts: NA
Location:  39.66°N, 87.52°W
Report Text: KPRG 270235Z AUTO 02003KT 10SM OVC110 M01/M02 A3010 RMK AO2 T10071025
Loading
Personal Weather Stations






























Interactive Weather Map New forecast layout! Learn more

10-Day Weather Forecast

Advertisements
Track Severe Weather on mobile